createdAt,value
2019-05-16T00:00:25.426Z,1.07
2019-05-16T00:01:01.397Z,0.93
2019-05-16T00:01:38.389Z,0.80
2019-05-16T00:02:14.551Z,0.80
2019-05-16T00:02:50.499Z,0.90
2019-05-16T00:03:28.032Z,0.87
2019-05-16T00:04:04.128Z,1.00
2019-05-16T00:04:40.007Z,1.10
2019-05-16T00:05:15.970Z,1.17
2019-05-16T00:05:54.506Z,0.90
2019-05-16T00:06:29.783Z,0.90
2019-05-16T00:07:07.902Z,1.27
2019-05-16T00:07:43.426Z,1.20
2019-05-16T00:08:19.316Z,1.00
2019-05-16T00:08:55.188Z,1.00
2019-05-16T00:09:31.947Z,0.97
2019-05-16T00:10:08.372Z,1.00
2019-05-16T00:10:44.586Z,1.23
2019-05-16T00:11:20.448Z,1.77
2019-05-16T00:11:58.102Z,1.10
2019-05-16T00:12:33.983Z,1.27
2019-05-16T00:13:10.008Z,1.37
2019-05-16T00:13:45.903Z,0.90
2019-05-16T00:14:21.952Z,1.40
2019-05-16T00:14:58.220Z,1.20
2019-05-16T00:15:34.221Z,0.90
2019-05-16T00:16:10.152Z,1.27
2019-05-16T00:16:48.240Z,1.67
2019-05-16T00:17:23.659Z,0.70
2019-05-16T00:17:59.551Z,1.20
2019-05-16T00:18:35.881Z,1.30
2019-05-16T00:19:13.740Z,1.10
2019-05-16T00:19:49.765Z,1.37
2019-05-16T00:20:28.132Z,1.80
2019-05-16T00:21:03.411Z,1.00
2019-05-16T00:21:39.383Z,1.67
2019-05-16T00:22:15.306Z,1.13
2019-05-16T00:22:51.189Z,1.00
2019-05-16T00:23:28.875Z,1.50
2019-05-16T00:24:04.785Z,1.20
2019-05-16T00:24:40.697Z,1.23
2019-05-16T00:25:17.950Z,1.20
2019-05-16T00:25:54.120Z,1.50
2019-05-16T00:26:29.995Z,1.60
2019-05-16T00:27:08.155Z,1.27
2019-05-16T00:27:43.661Z,1.37
2019-05-16T00:28:19.612Z,1.40
2019-05-16T00:28:55.556Z,1.07
2019-05-16T00:29:31.433Z,1.30
2019-05-16T00:30:08.902Z,1.40
2019-05-16T00:30:45.266Z,1.23
2019-05-16T00:31:21.197Z,1.37
2019-05-16T00:31:58.007Z,1.70
2019-05-16T00:32:38.722Z,1.70
2019-05-16T00:33:14.421Z,1.10
2019-05-16T00:33:50.437Z,1.33
2019-05-16T00:34:27.972Z,1.80
2019-05-16T00:35:03.975Z,1.90
2019-05-16T00:35:39.889Z,1.53
2019-05-16T00:36:15.806Z,2.07
2019-05-16T00:36:51.681Z,1.80
2019-05-16T00:37:28.699Z,2.00
2019-05-16T00:38:04.689Z,1.87
2019-05-16T00:38:40.537Z,1.63
2019-05-16T00:39:18.636Z,1.70
2019-05-16T00:39:54.766Z,1.47
2019-05-16T00:40:31.179Z,1.63
2019-05-16T00:41:08.518Z,1.87
2019-05-16T00:41:44.624Z,1.30
2019-05-16T00:42:20.997Z,1.63
2019-05-16T00:42:58.905Z,1.40
2019-05-16T00:43:35.117Z,1.27
2019-05-16T00:44:11.011Z,1.37
2019-05-16T00:44:47.903Z,1.80
2019-05-16T00:45:24.093Z,1.37
2019-05-16T00:45:59.950Z,1.03
2019-05-16T00:46:38.364Z,1.10
2019-05-16T00:47:14.362Z,1.23
2019-05-16T00:47:50.905Z,1.70
2019-05-16T00:48:28.841Z,1.30
2019-05-16T00:49:08.122Z,1.40
2019-05-16T00:49:44.191Z,1.10
2019-05-16T00:50:20.932Z,1.43
2019-05-16T00:50:58.441Z,1.50
2019-05-16T00:51:35.150Z,1.80
2019-05-16T00:52:11.420Z,1.20
2019-05-16T00:52:48.693Z,1.40
2019-05-16T00:53:25.776Z,1.77
2019-05-16T00:54:01.678Z,1.37
2019-05-16T00:54:38.534Z,2.27
2019-05-16T00:55:15.229Z,1.60
2019-05-16T00:55:51.222Z,1.43
2019-05-16T00:56:28.856Z,1.43
2019-05-16T00:57:08.323Z,1.57
2019-05-16T00:57:43.597Z,1.03
2019-05-16T00:58:19.837Z,1.50
2019-05-16T00:58:56.059Z,1.40
2019-05-16T00:59:32.756Z,1.40
2019-05-16T01:00:09.405Z,1.60
2019-05-16T01:00:50.302Z,1.10
2019-05-16T01:01:28.276Z,1.60
2019-05-16T01:02:04.239Z,1.70
2019-05-16T01:02:40.085Z,1.60
2019-05-16T01:03:16.008Z,1.73
2019-05-16T01:03:52.605Z,2.33
2019-05-16T01:04:29.218Z,1.40
2019-05-16T01:05:08.424Z,1.40
2019-05-16T01:05:47.910Z,1.80
2019-05-16T01:06:23.366Z,1.63
2019-05-16T01:07:01.731Z,1.80
2019-05-16T01:07:39.267Z,1.00
2019-05-16T01:08:15.182Z,2.00
2019-05-16T01:08:52.249Z,1.20
2019-05-16T01:09:29.067Z,1.93
2019-05-16T01:10:04.996Z,1.73
2019-05-16T01:10:40.863Z,1.40
2019-05-16T01:11:18.450Z,1.80
2019-05-16T01:11:54.400Z,1.40
2019-05-16T01:12:30.922Z,1.20
2019-05-16T01:13:07.968Z,1.70
2019-05-16T01:13:44.850Z,1.50
2019-05-16T01:14:20.827Z,1.90
2019-05-16T01:14:58.433Z,1.57
2019-05-16T01:15:34.664Z,1.37
2019-05-16T01:16:10.973Z,1.90
2019-05-16T01:16:48.788Z,1.47
2019-05-16T01:17:28.165Z,1.30
2019-05-16T01:18:03.425Z,1.67
2019-05-16T01:18:39.874Z,1.77
2019-05-16T01:19:18.561Z,1.40
2019-05-16T01:19:54.472Z,1.57
2019-05-16T01:20:30.985Z,1.70
2019-05-16T01:21:07.820Z,1.83
2019-05-16T01:21:44.378Z,2.83
2019-05-16T01:22:20.546Z,1.40
2019-05-16T01:22:58.142Z,1.50
2019-05-16T01:23:34.076Z,1.57
2019-05-16T01:24:10.085Z,1.67
2019-05-16T01:24:49.082Z,1.80
2019-05-16T01:25:24.871Z,1.70
2019-05-16T01:26:01.057Z,1.57
2019-05-16T01:26:39.011Z,1.47
2019-05-16T01:27:13.719Z,1.80
2019-05-16T01:27:49.585Z,2.00
2019-05-16T01:28:25.534Z,1.50
2019-05-16T01:29:01.425Z,1.60
2019-05-16T01:29:38.527Z,1.53
2019-05-16T01:30:14.777Z,1.03
2019-05-16T01:30:51.111Z,1.43
2019-05-16T01:31:27.977Z,1.10
2019-05-16T01:32:04.837Z,1.33
2019-05-16T01:32:41.637Z,1.20
2019-05-16T01:33:19.182Z,1.60
2019-05-16T01:33:55.403Z,1.50
2019-05-16T01:34:31.410Z,1.70
2019-05-16T01:35:08.335Z,1.63
2019-05-16T01:35:44.671Z,1.10
2019-05-16T01:36:33.323Z,1.30
2019-05-16T01:36:58.959Z,1.00
2019-05-16T01:37:35.229Z,1.87
2019-05-16T01:38:11.125Z,2.00
2019-05-16T01:38:48.115Z,1.43
2019-05-16T01:39:24.151Z,1.87
2019-05-16T01:40:00.038Z,1.63
2019-05-16T01:40:38.526Z,1.13
2019-05-16T01:41:13.767Z,1.20
2019-05-16T01:41:49.815Z,1.33
2019-05-16T01:42:27.722Z,1.90
2019-05-16T01:43:03.366Z,2.30
2019-05-16T01:43:39.382Z,1.17
2019-05-16T01:44:15.301Z,1.17
2019-05-16T01:44:51.121Z,1.47
2019-05-16T01:45:27.749Z,1.20
2019-05-16T01:46:03.787Z,1.87
2019-05-16T01:46:39.727Z,1.57
2019-05-16T01:47:15.626Z,1.50
2019-05-16T01:47:51.438Z,1.63
2019-05-16T01:48:29.253Z,1.50
2019-05-16T01:49:05.092Z,1.97
2019-05-16T01:49:40.964Z,1.90
2019-05-16T01:50:18.180Z,2.00
2019-05-16T01:50:54.873Z,2.10
2019-05-16T01:51:30.752Z,1.80
2019-05-16T01:52:08.469Z,1.90
2019-05-16T01:52:44.322Z,2.03
2019-05-16T01:53:25.092Z,1.97
2019-05-16T01:54:01.007Z,1.77
2019-05-16T01:54:38.820Z,2.03
2019-05-16T01:55:14.798Z,1.87
2019-05-16T01:55:50.721Z,1.70
2019-05-16T01:56:28.046Z,1.67
2019-05-16T01:57:04.175Z,2.03
2019-05-16T01:57:40.158Z,1.73
2019-05-16T01:58:19.422Z,2.03
2019-05-16T01:58:53.733Z,1.90
2019-05-16T01:59:29.605Z,2.10
2019-05-16T02:00:08.182Z,1.80
2019-05-16T02:00:52.687Z,2.83
2019-05-16T02:01:21.472Z,2.00
2019-05-16T02:02:00.728Z,1.80
2019-05-16T02:02:35.122Z,1.83
2019-05-16T02:03:11.116Z,1.80
2019-05-16T02:03:48.138Z,2.57
2019-05-16T02:04:24.192Z,2.33
2019-05-16T02:05:00.046Z,2.40
2019-05-16T02:05:35.908Z,2.00
2019-05-16T02:06:11.809Z,2.00
2019-05-16T02:06:53.753Z,1.60
2019-05-16T02:07:25.364Z,1.63
2019-05-16T02:08:01.253Z,1.50
2019-05-16T02:08:38.019Z,2.20
2019-05-16T02:09:14.123Z,3.07
2019-05-16T02:09:50.053Z,2.23
2019-05-16T02:10:28.320Z,2.10
2019-05-16T02:11:03.615Z,2.37
2019-05-16T02:11:39.612Z,1.90
2019-05-16T02:12:15.476Z,2.30
2019-05-16T02:12:52.072Z,2.17
2019-05-16T02:13:28.794Z,1.93
2019-05-16T02:14:04.836Z,1.60
2019-05-16T02:14:40.664Z,1.67
2019-05-16T02:15:18.245Z,1.80
2019-05-16T02:15:54.378Z,1.20
2019-05-16T02:16:30.244Z,1.67
2019-05-16T02:17:10.899Z,1.60
2019-05-16T02:17:43.883Z,1.70
2019-05-16T02:18:21.263Z,1.53
2019-05-16T02:18:58.897Z,1.73
2019-05-16T02:19:34.906Z,1.73
2019-05-16T02:20:10.809Z,1.20
2019-05-16T02:20:47.980Z,1.30
2019-05-16T02:21:24.241Z,1.33
2019-05-16T02:22:00.184Z,1.50
2019-05-16T02:22:36.016Z,1.10
2019-05-16T02:23:11.879Z,1.80
2019-05-16T02:23:49.052Z,1.60
2019-05-16T02:24:25.448Z,1.83
2019-05-16T02:25:01.283Z,1.70
2019-05-16T02:25:40.517Z,1.13
2019-05-16T02:26:14.796Z,1.43
2019-05-16T02:26:52.420Z,1.50
2019-05-16T02:27:28.828Z,1.50
2019-05-16T02:28:04.791Z,1.03
2019-05-16T02:28:43.852Z,1.17
2019-05-16T02:29:20.547Z,1.20
2019-05-16T02:29:56.129Z,1.70
2019-05-16T02:30:32.005Z,1.30
2019-05-16T02:31:11.953Z,0.90
2019-05-16T02:31:45.593Z,0.80
2019-05-16T02:32:22.228Z,1.20
2019-05-16T02:33:01.059Z,1.60
2019-05-16T02:33:36.199Z,1.33
2019-05-16T02:34:12.238Z,1.47
2019-05-16T02:34:48.162Z,1.23
2019-05-16T02:35:24.148Z,1.07
2019-05-16T02:36:01.777Z,1.27
2019-05-16T02:36:40.243Z,1.40
2019-05-16T02:37:24.245Z,1.40
2019-05-16T02:37:56.202Z,1.77
2019-05-16T02:38:32.137Z,1.07
2019-05-16T02:39:11.219Z,1.33
2019-05-16T02:39:46.487Z,1.10
2019-05-16T02:40:23.704Z,1.03
2019-05-16T02:41:02.666Z,1.20
2019-05-16T02:41:37.234Z,1.13
2019-05-16T02:42:13.093Z,1.10
2019-05-16T02:42:51.498Z,0.90
2019-05-16T02:43:26.888Z,1.30
2019-05-16T02:44:02.856Z,1.13
2019-05-16T02:44:41.242Z,1.23
2019-05-16T02:45:16.550Z,1.07
2019-05-16T02:45:52.501Z,1.00
2019-05-16T02:46:30.818Z,1.50
2019-05-16T02:47:06.070Z,1.10
2019-05-16T02:47:42.825Z,1.30
2019-05-16T02:48:21.320Z,1.40
2019-05-16T02:48:56.668Z,1.10
2019-05-16T02:49:34.187Z,1.20
2019-05-16T02:50:12.306Z,1.30
2019-05-16T02:50:51.188Z,1.60
2019-05-16T02:51:26.236Z,1.10
2019-05-16T02:52:02.093Z,1.13
2019-05-16T02:52:41.027Z,1.17
2019-05-16T02:53:15.636Z,1.13
2019-05-16T02:53:51.564Z,0.97
2019-05-16T02:54:27.448Z,0.80
2019-05-16T02:55:03.494Z,1.03
2019-05-16T02:55:41.098Z,0.90
2019-05-16T02:56:17.085Z,1.03
2019-05-16T02:56:53.015Z,1.30
2019-05-16T02:57:31.578Z,0.93
2019-05-16T02:58:06.516Z,0.90
2019-05-16T02:58:44.874Z,1.03
2019-05-16T02:59:20.799Z,0.90
2019-05-16T02:59:56.858Z,1.47
2019-05-16T03:00:41.949Z,1.37
2019-05-16T03:01:14.787Z,0.90
2019-05-16T03:01:52.018Z,1.47
2019-05-16T03:02:31.196Z,1.33
2019-05-16T03:03:07.060Z,1.43
2019-05-16T03:03:44.114Z,1.17
2019-05-16T03:04:21.294Z,1.20
2019-05-16T03:05:00.646Z,1.37
2019-05-16T03:05:35.943Z,1.20
2019-05-16T03:06:11.836Z,1.40
2019-05-16T03:06:51.124Z,1.13
2019-05-16T03:07:37.766Z,1.07
2019-05-16T03:08:05.422Z,0.97
2019-05-16T03:08:41.780Z,1.27
2019-05-16T03:09:20.777Z,0.87
2019-05-16T03:09:56.752Z,1.33
2019-05-16T03:10:33.631Z,1.20
2019-05-16T03:11:11.812Z,1.00
2019-05-16T03:11:50.836Z,1.00
2019-05-16T03:12:26.953Z,0.97
2019-05-16T03:13:03.032Z,1.13
2019-05-16T03:13:42.326Z,1.30
2019-05-16T03:14:21.249Z,1.20
2019-05-16T03:15:01.837Z,1.10
2019-05-16T03:15:35.784Z,1.20
2019-05-16T03:16:12.666Z,0.73
2019-05-16T03:16:50.623Z,1.03
2019-05-16T03:17:31.603Z,1.37
2019-05-16T03:18:06.992Z,1.20
2019-05-16T03:18:43.186Z,1.07
2019-05-16T03:19:21.657Z,1.33
2019-05-16T03:20:01.492Z,1.53
2019-05-16T03:20:40.796Z,1.60
2019-05-16T03:21:16.943Z,1.00
2019-05-16T03:21:53.346Z,0.97
2019-05-16T03:22:31.495Z,1.40
2019-05-16T03:23:11.017Z,1.60
2019-05-16T03:23:45.920Z,1.30
2019-05-16T03:24:22.284Z,1.30
2019-05-16T03:25:01.135Z,1.10
2019-05-16T03:25:41.541Z,1.40
2019-05-16T03:26:15.766Z,1.43
2019-05-16T03:26:51.625Z,1.20
2019-05-16T03:27:30.360Z,1.27
2019-05-16T03:28:05.332Z,2.07
2019-05-16T03:28:41.609Z,1.07
2019-05-16T03:29:17.536Z,1.40
2019-05-16T03:29:53.441Z,1.77
2019-05-16T03:30:35.219Z,1.80
2019-05-16T03:31:07.537Z,1.57
2019-05-16T03:31:45.031Z,1.60
2019-05-16T03:32:24.286Z,1.37
2019-05-16T03:33:04.269Z,1.40
2019-05-16T03:33:43.581Z,1.23
2019-05-16T03:34:16.627Z,1.53
2019-05-16T03:34:54.663Z,1.47
2019-05-16T03:35:33.874Z,1.90
2019-05-16T03:36:14.023Z,2.13
2019-05-16T03:36:45.046Z,2.10
2019-05-16T03:37:24.961Z,2.50
2019-05-16T03:38:01.447Z,2.33
2019-05-16T03:38:36.356Z,1.60
2019-05-16T03:39:12.231Z,2.60
2019-05-16T03:39:51.265Z,2.03
2019-05-16T03:40:31.396Z,2.60
2019-05-16T03:41:07.562Z,2.07
2019-05-16T03:41:43.438Z,1.60
2019-05-16T03:42:20.502Z,1.87
2019-05-16T03:42:56.624Z,1.93
2019-05-16T03:43:32.494Z,1.93
2019-05-16T03:44:11.100Z,2.50
2019-05-16T03:44:46.078Z,1.77
2019-05-16T03:45:22.089Z,1.97
2019-05-16T03:45:57.986Z,1.87
2019-05-16T03:46:33.921Z,1.73
2019-05-16T03:47:11.267Z,2.07
2019-05-16T03:47:50.824Z,1.90
2019-05-16T03:48:25.058Z,1.83
2019-05-16T03:49:02.399Z,1.93
2019-05-16T03:49:41.978Z,1.90
2019-05-16T03:50:16.470Z,2.20
2019-05-16T03:50:52.326Z,1.67
2019-05-16T03:51:30.721Z,2.33
2019-05-16T03:52:05.924Z,2.00
2019-05-16T03:52:43.519Z,1.97
2019-05-16T03:53:21.326Z,1.70
2019-05-16T03:53:57.749Z,2.70
2019-05-16T03:54:33.641Z,2.20
2019-05-16T03:55:11.084Z,1.87
2019-05-16T03:55:47.373Z,1.80
2019-05-16T03:56:24.209Z,2.07
2019-05-16T03:57:00.601Z,1.80
2019-05-16T03:57:36.690Z,2.67
2019-05-16T03:58:12.563Z,2.50
2019-05-16T03:58:50.931Z,2.30
2019-05-16T03:59:26.321Z,2.20
2019-05-16T04:00:03.836Z,2.03
2019-05-16T04:01:01.813Z,1.90
2019-05-16T04:01:35.754Z,2.30
2019-05-16T04:02:11.786Z,1.67
2019-05-16T04:02:47.666Z,2.30
2019-05-16T04:03:28.179Z,2.00
2019-05-16T04:04:01.999Z,1.97
2019-05-16T04:04:37.906Z,2.10
2019-05-16T04:05:14.027Z,1.80
2019-05-16T04:05:52.541Z,2.00
2019-05-16T04:06:30.972Z,1.80
2019-05-16T04:07:05.419Z,2.30
2019-05-16T04:07:41.948Z,1.70
2019-05-16T04:08:23.742Z,1.70
2019-05-16T04:08:55.619Z,1.63
2019-05-16T04:09:31.785Z,2.77
2019-05-16T04:10:10.919Z,1.57
2019-05-16T04:10:46.290Z,2.17
2019-05-16T04:11:23.361Z,1.97
2019-05-16T04:12:01.802Z,1.80
2019-05-16T04:12:37.657Z,2.10
2019-05-16T04:13:13.591Z,2.10
2019-05-16T04:13:51.105Z,1.47
2019-05-16T04:14:27.135Z,1.57
2019-05-16T04:15:02.997Z,2.10
2019-05-16T04:15:40.778Z,1.80
2019-05-16T04:16:16.648Z,1.90
2019-05-16T04:16:52.540Z,1.80
2019-05-16T04:17:31.760Z,1.80
2019-05-16T04:18:07.279Z,1.80
2019-05-16T04:18:43.124Z,1.47
2019-05-16T04:19:21.064Z,1.70
2019-05-16T04:19:56.654Z,2.37
2019-05-16T04:20:32.546Z,1.67
2019-05-16T04:21:11.650Z,1.77
2019-05-16T04:21:46.122Z,2.53
2019-05-16T04:22:22.016Z,1.80
2019-05-16T04:23:00.934Z,2.60
2019-05-16T04:23:35.624Z,2.00
2019-05-16T04:24:12.516Z,2.03
2019-05-16T04:24:51.247Z,1.83
2019-05-16T04:25:26.343Z,1.93
2019-05-16T04:26:02.240Z,2.33
2019-05-16T04:26:40.938Z,2.37
2019-05-16T04:27:15.782Z,1.90
2019-05-16T04:27:51.829Z,2.23
2019-05-16T04:28:27.721Z,1.70
2019-05-16T04:29:03.572Z,1.90
2019-05-16T04:29:40.793Z,2.20
2019-05-16T04:30:21.931Z,2.27
2019-05-16T04:30:56.922Z,2.00
2019-05-16T04:31:32.850Z,1.43
2019-05-16T04:32:11.059Z,2.07
2019-05-16T04:32:46.599Z,1.67
2019-05-16T04:33:22.831Z,1.83
2019-05-16T04:34:01.086Z,2.50
2019-05-16T04:34:36.556Z,2.30
2019-05-16T04:35:12.460Z,2.50
2019-05-16T04:35:51.803Z,2.30
2019-05-16T04:36:26.028Z,2.10
2019-05-16T04:37:01.884Z,1.93
2019-05-16T04:37:37.871Z,2.00
2019-05-16T04:38:30.202Z,2.00
2019-05-16T04:38:51.698Z,2.10
2019-05-16T04:39:31.580Z,1.70
2019-05-16T04:40:05.670Z,1.73
2019-05-16T04:40:42.430Z,1.60
2019-05-16T04:41:21.154Z,1.90
2019-05-16T04:41:56.182Z,1.70
2019-05-16T04:42:32.025Z,1.73
2019-05-16T04:43:07.907Z,1.50
2019-05-16T04:43:43.775Z,1.70
2019-05-16T04:44:21.336Z,2.10
2019-05-16T04:45:00.797Z,1.50
2019-05-16T04:45:35.012Z,2.63
2019-05-16T04:46:11.634Z,1.60
2019-05-16T04:46:50.720Z,1.60
2019-05-16T04:47:25.599Z,1.67
2019-05-16T04:48:01.450Z,2.80
2019-05-16T04:48:37.453Z,2.00
2019-05-16T04:49:13.428Z,2.20
2019-05-16T04:49:51.876Z,1.83
2019-05-16T04:50:30.987Z,2.13
2019-05-16T04:51:05.634Z,1.80
2019-05-16T04:51:41.827Z,2.10
2019-05-16T04:52:17.718Z,1.90
2019-05-16T04:52:53.643Z,1.80
2019-05-16T04:53:31.655Z,2.20
2019-05-16T04:54:08.112Z,1.70
2019-05-16T04:54:44.860Z,1.60
2019-05-16T04:55:22.083Z,2.50
2019-05-16T04:56:01.413Z,1.63
2019-05-16T04:56:35.721Z,1.90
2019-05-16T04:57:12.138Z,2.40
2019-05-16T04:57:51.122Z,1.50
2019-05-16T04:58:26.011Z,2.50
2019-05-16T04:59:01.925Z,2.00
2019-05-16T04:59:37.806Z,2.20
2019-05-16T05:00:14.651Z,2.10
2019-05-16T05:00:51.670Z,2.60
2019-05-16T05:01:33.221Z,2.73
2019-05-16T05:02:11.955Z,2.57
2019-05-16T05:02:46.891Z,2.50
2019-05-16T05:03:22.831Z,2.30
2019-05-16T05:04:09.031Z,2.80
2019-05-16T05:04:36.416Z,2.33
2019-05-16T05:05:12.911Z,2.70
2019-05-16T05:05:51.261Z,2.63
2019-05-16T05:06:26.730Z,3.07
2019-05-16T05:07:02.591Z,3.50
2019-05-16T05:07:40.667Z,2.33
2019-05-16T05:08:16.167Z,3.10
2019-05-16T05:08:58.304Z,2.70
2019-05-16T05:09:31.575Z,2.70
2019-05-16T05:10:10.960Z,3.50
2019-05-16T05:10:45.850Z,3.23
2019-05-16T05:11:21.885Z,3.30
2019-05-16T05:12:03.949Z,3.00
2019-05-16T05:12:35.677Z,2.70
2019-05-16T05:13:11.650Z,2.90
2019-05-16T05:13:50.642Z,2.57
2019-05-16T05:14:26.420Z,3.10
2019-05-16T05:15:02.343Z,3.13
2019-05-16T05:15:40.139Z,2.80
2019-05-16T05:16:16.230Z,2.53
2019-05-16T05:16:52.127Z,3.37
2019-05-16T05:17:30.422Z,3.40
2019-05-16T05:18:05.791Z,3.20
2019-05-16T05:18:41.682Z,3.23
2019-05-16T05:19:20.061Z,2.93
2019-05-16T05:19:55.334Z,2.80
2019-05-16T05:20:31.247Z,2.90
2019-05-16T05:21:07.106Z,3.80
2019-05-16T05:21:42.962Z,2.93
2019-05-16T05:22:19.883Z,2.97
2019-05-16T05:22:56.177Z,2.90
2019-05-16T05:23:32.054Z,2.90
2019-05-16T05:24:10.886Z,2.83
2019-05-16T05:24:47.218Z,3.10
2019-05-16T05:25:23.234Z,3.10
2019-05-16T05:26:00.259Z,3.70
2019-05-16T05:26:36.543Z,3.10
2019-05-16T05:27:12.485Z,2.63
2019-05-16T05:27:50.104Z,4.00
2019-05-16T05:28:26.415Z,3.40
2019-05-16T05:29:02.287Z,3.33
2019-05-16T05:29:39.803Z,3.27
2019-05-16T05:30:15.845Z,3.23
2019-05-16T05:30:51.739Z,3.17
2019-05-16T05:31:27.615Z,3.57
2019-05-16T05:32:05.156Z,3.27
2019-05-16T05:32:41.585Z,4.13
2019-05-16T05:33:17.493Z,3.60
2019-05-16T05:33:53.508Z,2.97
2019-05-16T05:34:30.457Z,3.10
2019-05-16T05:35:06.699Z,4.13
2019-05-16T05:35:43.294Z,3.03
2019-05-16T05:36:21.009Z,3.60
2019-05-16T05:36:56.924Z,3.03
2019-05-16T05:37:32.816Z,3.70
2019-05-16T05:38:10.531Z,3.70
2019-05-16T05:38:48.376Z,2.83
2019-05-16T05:39:24.353Z,3.50
2019-05-16T05:40:00.242Z,3.20
2019-05-16T05:40:36.088Z,3.03
2019-05-16T05:41:12.014Z,4.17
2019-05-16T05:41:50.289Z,3.47
2019-05-16T05:42:25.781Z,3.20
2019-05-16T05:43:01.667Z,3.33
2019-05-16T05:43:39.634Z,4.13
2019-05-16T05:44:15.420Z,3.77
2019-05-16T05:44:51.589Z,3.70
2019-05-16T05:45:27.474Z,2.93
2019-05-16T05:46:03.322Z,3.47
2019-05-16T05:46:40.054Z,2.60
2019-05-16T05:47:16.275Z,3.07
2019-05-16T05:47:52.158Z,2.67
2019-05-16T05:48:30.547Z,3.40
2019-05-16T05:49:05.730Z,3.03
2019-05-16T05:49:41.752Z,2.90
2019-05-16T05:50:20.774Z,3.47
2019-05-16T05:50:56.754Z,3.10
2019-05-16T05:51:32.624Z,2.77
2019-05-16T05:52:11.761Z,3.40
2019-05-16T05:52:46.379Z,3.80
2019-05-16T05:53:22.292Z,2.40
2019-05-16T05:54:00.132Z,3.00
2019-05-16T05:54:35.947Z,2.63
2019-05-16T05:55:11.887Z,2.47
2019-05-16T05:55:50.662Z,2.63
2019-05-16T05:56:25.420Z,3.00
2019-05-16T05:57:01.335Z,3.10
2019-05-16T05:57:37.194Z,2.93
2019-05-16T05:58:13.017Z,2.63
2019-05-16T05:58:51.191Z,2.73
2019-05-16T05:59:26.655Z,2.63
2019-05-16T06:00:02.583Z,2.87
2019-05-16T06:00:40.577Z,3.00
2019-05-16T06:01:16.253Z,2.17
2019-05-16T06:01:52.151Z,3.00
2019-05-16T06:02:27.990Z,3.10
2019-05-16T06:03:04.068Z,3.03
2019-05-16T06:03:40.012Z,3.17
2019-05-16T06:04:16.075Z,3.40
2019-05-16T06:04:51.999Z,3.07
2019-05-16T06:05:30.417Z,2.80
2019-05-16T06:06:05.672Z,3.00
2019-05-16T06:06:44.877Z,2.97
2019-05-16T06:07:20.493Z,3.23
2019-05-16T06:07:56.885Z,2.20
2019-05-16T06:08:32.792Z,3.27
2019-05-16T06:09:18.284Z,3.40
2019-05-16T06:09:53.629Z,3.63
2019-05-16T06:10:24.310Z,3.73
2019-05-16T06:11:01.768Z,3.57
2019-05-16T06:11:40.602Z,3.27
2019-05-16T06:12:16.649Z,3.37
2019-05-16T06:12:52.511Z,3.37
2019-05-16T06:13:30.811Z,3.03
2019-05-16T06:14:06.897Z,3.07
2019-05-16T06:14:42.783Z,4.27
2019-05-16T06:15:20.285Z,2.83
2019-05-16T06:15:56.677Z,3.20
2019-05-16T06:16:33.348Z,3.13
2019-05-16T06:17:11.535Z,3.50
2019-05-16T06:17:47.864Z,3.10
2019-05-16T06:18:23.744Z,3.10
2019-05-16T06:19:00.913Z,3.20
2019-05-16T06:19:40.255Z,2.83
2019-05-16T06:20:16.290Z,4.53
2019-05-16T06:20:52.192Z,3.07
2019-05-16T06:21:33.041Z,2.90
2019-05-16T06:22:05.939Z,3.63
2019-05-16T06:22:41.864Z,2.83
2019-05-16T06:23:20.658Z,3.13
2019-05-16T06:23:56.133Z,3.47
2019-05-16T06:24:32.176Z,3.27
2019-05-16T06:25:12.974Z,3.37
2019-05-16T06:25:45.873Z,3.60
2019-05-16T06:26:21.828Z,3.30
2019-05-16T06:27:00.932Z,3.30
2019-05-16T06:27:36.888Z,3.10
2019-05-16T06:28:12.793Z,3.27
2019-05-16T06:28:50.435Z,3.30
2019-05-16T06:29:26.349Z,3.37
2019-05-16T06:30:02.290Z,3.20
2019-05-16T06:30:40.638Z,3.67
2019-05-16T06:31:15.997Z,3.50
2019-05-16T06:31:52.197Z,3.10
2019-05-16T06:32:30.240Z,3.90
2019-05-16T06:33:05.874Z,3.60
2019-05-16T06:33:41.827Z,3.30
2019-05-16T06:34:17.700Z,3.27
2019-05-16T06:34:53.580Z,4.00
2019-05-16T06:35:30.033Z,3.17
2019-05-16T06:36:06.140Z,3.40
2019-05-16T06:36:42.454Z,3.80
2019-05-16T06:37:20.535Z,3.43
2019-05-16T06:37:56.108Z,3.13
2019-05-16T06:38:32.079Z,3.53
2019-05-16T06:39:11.403Z,3.97
2019-05-16T06:39:47.117Z,3.70
2019-05-16T06:40:23.181Z,3.03
2019-05-16T06:41:00.363Z,3.10
2019-05-16T06:41:36.831Z,2.87
2019-05-16T06:42:13.953Z,3.37
2019-05-16T06:42:51.689Z,3.30
2019-05-16T06:43:29.986Z,3.00
2019-05-16T06:44:07.330Z,3.87
2019-05-16T06:44:43.327Z,3.30
2019-05-16T06:45:20.469Z,3.00
2019-05-16T06:45:56.729Z,2.73
2019-05-16T06:46:40.233Z,3.17
2019-05-16T06:47:19.378Z,3.90
2019-05-16T06:47:50.375Z,3.80
2019-05-16T06:48:26.123Z,3.57
2019-05-16T06:49:02.026Z,3.20
2019-05-16T06:49:40.171Z,3.00
2019-05-16T06:50:15.757Z,3.00
2019-05-16T06:50:52.037Z,3.50
2019-05-16T06:51:30.568Z,3.10
2019-05-16T06:52:06.487Z,2.93
2019-05-16T06:52:45.714Z,3.10
2019-05-16T06:53:21.099Z,3.10
2019-05-16T06:53:57.289Z,4.97
2019-05-16T06:54:33.204Z,3.30
2019-05-16T06:55:10.081Z,3.80
2019-05-16T06:55:46.353Z,3.60
2019-05-16T06:56:22.218Z,2.83
2019-05-16T06:57:00.111Z,2.77
2019-05-16T06:57:35.824Z,2.30
2019-05-16T06:58:11.652Z,3.03
2019-05-16T06:58:51.433Z,2.77
2019-05-16T06:59:25.287Z,2.90
2019-05-16T07:00:02.738Z,2.57
2019-05-16T07:00:40.708Z,2.60
2019-05-16T07:01:16.682Z,2.70
2019-05-16T07:01:52.649Z,2.87
2019-05-16T07:02:33.682Z,2.03
2019-05-16T07:03:09.347Z,2.10
2019-05-16T07:03:44.225Z,2.30
2019-05-16T07:04:20.252Z,2.07
2019-05-16T07:04:56.167Z,1.80
2019-05-16T07:05:32.014Z,2.93
2019-05-16T07:06:11.010Z,2.10
2019-05-16T07:06:55.991Z,2.30
2019-05-16T07:07:23.960Z,3.07
2019-05-16T07:07:59.894Z,2.20
2019-05-16T07:08:35.820Z,2.40
2019-05-16T07:09:12.148Z,2.00
2019-05-16T07:09:58.131Z,2.53
2019-05-16T07:10:25.700Z,2.40
2019-05-16T07:11:01.570Z,2.50
2019-05-16T07:11:39.644Z,1.83
2019-05-16T07:12:15.260Z,2.20
2019-05-16T07:12:51.139Z,2.03
2019-05-16T07:13:27.006Z,1.97
2019-05-16T07:14:03.010Z,1.90
2019-05-16T07:14:40.559Z,2.13
2019-05-16T07:15:17.011Z,1.90
2019-05-16T07:15:53.047Z,1.60
2019-05-16T07:16:29.934Z,2.30
2019-05-16T07:17:05.979Z,2.03
2019-05-16T07:17:42.054Z,1.73
2019-05-16T07:18:20.405Z,2.30
2019-05-16T07:18:55.633Z,2.03
2019-05-16T07:19:31.509Z,1.83
2019-05-16T07:20:10.169Z,1.80
2019-05-16T07:20:46.201Z,2.30
2019-05-16T07:21:22.043Z,2.23
2019-05-16T07:21:59.784Z,1.90
2019-05-16T07:22:35.758Z,2.40
2019-05-16T07:23:11.651Z,2.30
2019-05-16T07:23:47.492Z,1.80
2019-05-16T07:24:23.525Z,2.40
2019-05-16T07:24:59.952Z,2.33
2019-05-16T07:25:36.083Z,2.57
2019-05-16T07:26:11.987Z,2.67
2019-05-16T07:26:50.045Z,2.00
2019-05-16T07:27:25.545Z,2.60
2019-05-16T07:28:01.444Z,2.40
2019-05-16T07:28:37.351Z,2.37
2019-05-16T07:29:14.942Z,2.90
2019-05-16T07:29:52.141Z,3.13
2019-05-16T07:30:30.300Z,2.33
2019-05-16T07:31:14.860Z,2.17
2019-05-16T07:31:44.221Z,2.40
2019-05-16T07:32:20.089Z,2.80
2019-05-16T07:32:56.031Z,3.00
2019-05-16T07:33:31.936Z,2.60
2019-05-16T07:34:10.793Z,2.40
2019-05-16T07:34:45.653Z,2.60
2019-05-16T07:35:21.649Z,2.40
2019-05-16T07:35:57.601Z,2.23
2019-05-16T07:36:33.611Z,3.00
2019-05-16T07:37:10.815Z,2.60
2019-05-16T07:37:46.752Z,2.17
2019-05-16T07:38:22.625Z,2.50
2019-05-16T07:38:59.805Z,2.53
2019-05-16T07:39:38.655Z,2.80
2019-05-16T07:40:19.661Z,1.93
2019-05-16T07:40:52.749Z,3.00
2019-05-16T07:41:31.066Z,2.43
2019-05-16T07:42:07.167Z,2.10
2019-05-16T07:42:43.018Z,2.37
2019-05-16T07:43:20.481Z,2.43
2019-05-16T07:43:56.559Z,2.10
2019-05-16T07:44:32.418Z,2.37
2019-05-16T07:45:10.887Z,2.30
2019-05-16T07:45:46.567Z,2.10
2019-05-16T07:46:22.458Z,1.90
2019-05-16T07:47:00.790Z,1.90
2019-05-16T07:47:36.074Z,2.47
2019-05-16T07:48:11.987Z,2.40
2019-05-16T07:48:51.381Z,2.20
2019-05-16T07:49:25.591Z,2.37
2019-05-16T07:50:01.478Z,2.50
2019-05-16T07:50:40.426Z,2.47
2019-05-16T07:51:15.852Z,3.17
2019-05-16T07:51:51.707Z,2.47
2019-05-16T07:52:27.641Z,1.93
2019-05-16T07:53:03.611Z,2.27
2019-05-16T07:53:40.313Z,1.83
2019-05-16T07:54:16.532Z,2.20
2019-05-16T07:54:52.552Z,2.80
2019-05-16T07:55:30.714Z,2.00
2019-05-16T07:56:06.267Z,2.03
2019-05-16T07:56:42.202Z,2.10
2019-05-16T07:57:20.437Z,2.40
2019-05-16T07:57:56.674Z,2.50
2019-05-16T07:58:32.706Z,2.00
2019-05-16T07:59:11.327Z,2.00
2019-05-16T07:59:47.346Z,2.37
2019-05-16T08:00:41.977Z,2.30
2019-05-16T08:01:04.607Z,2.30
2019-05-16T08:01:39.863Z,2.70
2019-05-16T08:02:16.525Z,3.20
2019-05-16T08:02:52.466Z,2.50
2019-05-16T08:03:30.395Z,2.33
2019-05-16T08:04:06.218Z,2.80
2019-05-16T08:04:42.120Z,2.93
2019-05-16T08:05:20.785Z,3.07
2019-05-16T08:05:55.926Z,3.13
2019-05-16T08:06:34.077Z,2.80
2019-05-16T08:07:10.770Z,2.53
2019-05-16T08:07:46.867Z,2.60
2019-05-16T08:08:24.155Z,2.90
2019-05-16T08:09:00.430Z,2.77